createdAt,value
2017-07-18T00:00:33.994Z,0
2017-07-18T00:01:33.716Z,0
2017-07-18T00:02:33.766Z,0
2017-07-18T00:03:33.699Z,0
2017-07-18T00:04:33.738Z,0
2017-07-18T00:05:33.738Z,0
2017-07-18T00:06:33.664Z,0
2017-07-18T00:07:33.328Z,0
2017-07-18T00:08:33.629Z,0
2017-07-18T00:09:33.608Z,0
2017-07-18T00:10:33.606Z,0
2017-07-18T00:11:33.587Z,0
2017-07-18T00:12:33.866Z,0
2017-07-18T00:13:33.845Z,0
2017-07-18T00:14:33.864Z,0
2017-07-18T00:15:33.566Z,0
2017-07-18T00:16:33.804Z,0
2017-07-18T00:17:33.526Z,0
2017-07-18T00:18:33.795Z,0
2017-07-18T00:19:33.836Z,0
2017-07-18T00:20:33.780Z,0
2017-07-18T00:21:33.516Z,0
2017-07-18T00:22:33.433Z,0
2017-07-18T00:23:33.775Z,0
2017-07-18T00:24:33.444Z,0
2017-07-18T00:25:33.695Z,0
2017-07-18T00:26:33.658Z,0
2017-07-18T00:27:33.746Z,0
2017-07-18T00:28:33.640Z,0
2017-07-18T00:29:33.316Z,0
2017-07-18T00:30:33.637Z,0
2017-07-18T00:31:33.275Z,0
2017-07-18T00:32:33.597Z,0
2017-07-18T00:33:33.556Z,0
2017-07-18T00:34:33.547Z,0
2017-07-18T00:35:32.899Z,0
2017-07-18T00:36:33.604Z,0
2017-07-18T00:37:33.176Z,0
2017-07-18T00:38:33.185Z,0
2017-07-18T00:39:33.215Z,0
2017-07-18T00:40:33.514Z,0
2017-07-18T00:41:32.805Z,0
2017-07-18T00:42:33.106Z,0
2017-07-18T00:43:33.086Z,0
2017-07-18T00:44:33.077Z,0
2017-07-18T00:45:33.056Z,0
2017-07-18T00:46:33.352Z,0
2017-07-18T00:47:33.036Z,0
2017-07-18T00:48:33.034Z,0
2017-07-18T00:49:32.386Z,0
2017-07-18T00:50:33.404Z,0
2017-07-18T00:51:33.317Z,0
2017-07-18T00:52:33.287Z,0
2017-07-18T00:53:33.340Z,0
2017-07-18T00:54:33.286Z,0
2017-07-18T00:55:32.893Z,0
2017-07-18T00:56:33.237Z,0
2017-07-18T00:57:33.237Z,0
2017-07-18T00:58:32.871Z,0
2017-07-18T00:59:33.175Z,0
2017-07-18T01:00:32.857Z,0
2017-07-18T01:01:32.513Z,0
2017-07-18T01:02:32.814Z,0
2017-07-18T01:03:33.097Z,0
2017-07-18T01:04:32.457Z,0
2017-07-18T01:05:32.868Z,0
2017-07-18T01:06:32.746Z,0
2017-07-18T01:07:32.407Z,0
2017-07-18T01:08:32.713Z,0
2017-07-18T01:09:32.685Z,0
2017-07-18T01:10:32.987Z,0
2017-07-18T01:11:32.988Z,0
2017-07-18T01:12:32.347Z,0
2017-07-18T01:13:32.616Z,0
2017-07-18T01:14:32.621Z,0
2017-07-18T01:15:32.905Z,0
2017-07-18T01:16:32.595Z,0
2017-07-18T01:17:32.258Z,0
2017-07-18T01:18:32.859Z,0
2017-07-18T01:19:32.536Z,0
2017-07-18T01:20:32.539Z,0
2017-07-18T01:21:32.519Z,0
2017-07-18T01:22:32.494Z,0
2017-07-18T01:23:32.462Z,0
2017-07-18T01:24:31.865Z,0
2017-07-18T01:25:32.464Z,0
2017-07-18T01:26:32.736Z,0
2017-07-18T01:27:32.417Z,0
2017-07-18T01:28:32.752Z,0
2017-07-18T01:29:32.384Z,0
2017-07-18T01:30:32.672Z,0
2017-07-18T01:31:32.666Z,0
2017-07-18T01:32:32.337Z,0
2017-07-18T01:33:32.027Z,0
2017-07-18T01:34:32.604Z,0
2017-07-18T01:35:32.625Z,0
2017-07-18T01:36:32.288Z,0
2017-07-18T01:37:31.954Z,0
2017-07-18T01:38:32.243Z,0
2017-07-18T01:39:32.546Z,0
2017-07-18T01:40:32.196Z,0
2017-07-18T01:41:32.497Z,0
2017-07-18T01:42:32.201Z,0
2017-07-18T01:43:32.166Z,0
2017-07-18T01:44:32.459Z,0
2017-07-18T01:45:32.117Z,0
2017-07-18T01:46:32.415Z,0
2017-07-18T01:47:32.416Z,0
2017-07-18T01:48:32.396Z,0
2017-07-18T01:49:32.368Z,0
2017-07-18T01:50:32.399Z,0
2017-07-18T01:51:32.374Z,0
2017-07-18T01:52:31.803Z,0
2017-07-18T01:53:32.296Z,0
2017-07-18T01:54:32.018Z,0
2017-07-18T01:55:31.367Z,0
2017-07-18T01:56:31.965Z,0
2017-07-18T01:57:31.657Z,0
2017-07-18T01:58:32.237Z,0
2017-07-18T01:59:31.924Z,0
2017-07-18T02:00:31.327Z,0
2017-07-18T02:01:32.201Z,0
2017-07-18T02:02:31.578Z,0
2017-07-18T02:03:31.564Z,0
2017-07-18T02:04:32.146Z,0
2017-07-18T02:05:31.226Z,0
2017-07-18T02:06:31.796Z,0
2017-07-18T02:07:31.187Z,0
2017-07-18T02:08:31.498Z,0
2017-07-18T02:09:31.749Z,0
2017-07-18T02:10:32.056Z,0
2017-07-18T02:11:31.785Z,0
2017-07-18T02:12:31.786Z,0
2017-07-18T02:13:31.984Z,0
2017-07-18T02:14:31.977Z,0
2017-07-18T02:15:31.675Z,0
2017-07-18T02:16:31.666Z,0
2017-07-18T02:17:31.616Z,0
2017-07-18T02:18:31.613Z,0
2017-07-18T02:19:31.294Z,0
2017-07-18T02:20:31.628Z,0
2017-07-18T02:21:31.246Z,0
2017-07-18T02:22:31.607Z,0
2017-07-18T02:23:31.838Z,0
2017-07-18T02:24:30.910Z,0
2017-07-18T02:25:31.509Z,0
2017-07-18T02:26:31.495Z,0
2017-07-18T02:27:31.477Z,0
2017-07-18T02:28:31.795Z,0
2017-07-18T02:29:31.867Z,0
2017-07-18T02:30:31.735Z,0
2017-07-18T02:31:31.455Z,0
2017-07-18T02:32:31.554Z,0
2017-07-18T02:33:31.385Z,0
2017-07-18T02:34:31.673Z,0
2017-07-18T02:35:31.650Z,0
2017-07-18T02:36:31.637Z,0
2017-07-18T02:37:31.395Z,0
2017-07-18T02:38:31.298Z,0
2017-07-18T02:39:31.283Z,0
2017-07-18T02:40:31.287Z,0
2017-07-18T02:41:31.269Z,0
2017-07-18T02:42:31.558Z,0
2017-07-18T02:43:31.551Z,0
2017-07-18T02:44:31.270Z,0
2017-07-18T02:45:31.197Z,0
2017-07-18T02:46:31.198Z,0
2017-07-18T02:47:31.228Z,0
2017-07-18T02:48:31.516Z,0
2017-07-18T02:49:31.126Z,0
2017-07-18T02:50:31.237Z,0
2017-07-18T02:51:31.086Z,0
2017-07-18T02:52:31.401Z,0
2017-07-18T02:53:31.377Z,0
2017-07-18T02:54:31.429Z,4
2017-07-18T02:55:31.334Z,4
2017-07-18T02:56:31.336Z,4
2017-07-18T02:57:31.305Z,0
2017-07-18T02:58:31.395Z,0
2017-07-18T02:59:31.270Z,4
2017-07-18T03:00:31.332Z,4
2017-07-18T03:01:30.923Z,0
2017-07-18T03:02:31.287Z,4
2017-07-18T03:03:30.907Z,4
2017-07-18T03:04:31.197Z,4
2017-07-18T03:05:31.227Z,8
2017-07-18T03:06:31.215Z,8
2017-07-18T03:07:31.156Z,8
2017-07-18T03:08:31.127Z,12
2017-07-18T03:09:30.804Z,12
2017-07-18T03:10:30.476Z,12
2017-07-18T03:11:31.118Z,12
2017-07-18T03:12:31.052Z,16
2017-07-18T03:13:30.457Z,16
2017-07-18T03:14:30.426Z,20
2017-07-18T03:15:30.700Z,20
2017-07-18T03:16:30.696Z,20
2017-07-18T03:17:30.978Z,28
2017-07-18T03:18:30.656Z,28
2017-07-18T03:19:30.325Z,32
2017-07-18T03:20:30.956Z,32
2017-07-18T03:21:30.946Z,40
2017-07-18T03:22:30.976Z,44
2017-07-18T03:23:30.905Z,48
2017-07-18T03:24:30.876Z,52
2017-07-18T03:25:30.539Z,56
2017-07-18T03:26:30.606Z,64
2017-07-18T03:27:30.514Z,64
2017-07-18T03:28:30.859Z,72
2017-07-18T03:29:30.786Z,76
2017-07-18T03:30:30.156Z,84
2017-07-18T03:31:30.124Z,92
2017-07-18T03:32:30.733Z,100
2017-07-18T03:33:30.716Z,104
2017-07-18T03:34:30.097Z,112
2017-07-18T03:35:30.682Z,124
2017-07-18T03:36:30.121Z,132
2017-07-18T03:37:30.347Z,140
2017-07-18T03:38:30.340Z,152
2017-07-18T03:39:30.026Z,160
2017-07-18T03:40:30.010Z,168
2017-07-18T03:41:30.294Z,180
2017-07-18T03:42:30.294Z,192
2017-07-18T03:43:30.247Z,200
2017-07-18T03:44:30.229Z,212
2017-07-18T03:45:30.215Z,224
2017-07-18T03:46:30.498Z,236
2017-07-18T03:47:30.500Z,248
2017-07-18T03:48:30.177Z,260
2017-07-18T03:49:29.841Z,268
2017-07-18T03:50:30.137Z,280
2017-07-18T03:51:29.794Z,292
2017-07-18T03:52:30.104Z,304
2017-07-18T03:53:30.084Z,320
2017-07-18T03:54:30.376Z,328
2017-07-18T03:55:30.057Z,340
2017-07-18T03:56:30.042Z,352
2017-07-18T03:57:30.368Z,364
2017-07-18T03:58:29.696Z,380
2017-07-18T03:59:30.296Z,392
2017-07-18T04:00:29.740Z,408
2017-07-18T04:01:29.946Z,420
2017-07-18T04:02:30.235Z,432
2017-07-18T04:03:29.927Z,444
2017-07-18T04:04:30.202Z,460
2017-07-18T04:05:29.896Z,480
2017-07-18T04:06:30.164Z,500
2017-07-18T04:07:29.969Z,516
2017-07-18T04:08:30.158Z,536
2017-07-18T04:09:30.137Z,556
2017-07-18T04:10:29.526Z,572
2017-07-18T04:11:30.087Z,596
2017-07-18T04:12:29.498Z,616
2017-07-18T04:13:30.056Z,640
2017-07-18T04:14:29.557Z,668
2017-07-18T04:15:29.516Z,688
2017-07-18T04:16:29.739Z,712
2017-07-18T04:17:30.006Z,736
2017-07-18T04:18:29.476Z,760
2017-07-18T04:19:29.951Z,788
2017-07-18T04:20:29.419Z,816
2017-07-18T04:21:29.326Z,848
2017-07-18T04:22:29.317Z,868
2017-07-18T04:23:28.979Z,892
2017-07-18T04:24:29.877Z,912
2017-07-18T04:25:29.879Z,920
2017-07-18T04:26:29.557Z,924
2017-07-18T04:27:29.246Z,932
2017-07-18T04:28:29.538Z,948
2017-07-18T04:29:29.505Z,968
2017-07-18T04:30:29.793Z,992
2017-07-18T04:31:28.847Z,1016
2017-07-18T04:32:29.152Z,1052
2017-07-18T04:33:29.437Z,1112
2017-07-18T04:34:29.409Z,1144
2017-07-18T04:35:29.409Z,1168
2017-07-18T04:36:28.776Z,1196
2017-07-18T04:37:29.447Z,1216
2017-07-18T04:38:29.365Z,1232
2017-07-18T04:39:29.626Z,1256
2017-07-18T04:40:29.648Z,1276
2017-07-18T04:41:29.592Z,1292
2017-07-18T04:42:28.987Z,1308
2017-07-18T04:43:29.349Z,1328
2017-07-18T04:44:29.266Z,1348
2017-07-18T04:45:29.545Z,1368
2017-07-18T04:46:28.928Z,1384
2017-07-18T04:47:29.309Z,1408
2017-07-18T04:48:28.931Z,1420
2017-07-18T04:49:28.857Z,1432
2017-07-18T04:50:29.165Z,1448
2017-07-18T04:51:29.447Z,1464
2017-07-18T04:52:28.805Z,1476
2017-07-18T04:53:28.804Z,1488
2017-07-18T04:54:29.401Z,1492
2017-07-18T04:55:29.156Z,1496
2017-07-18T04:56:29.063Z,1492
2017-07-18T04:57:28.726Z,1472
2017-07-18T04:58:29.027Z,1452
2017-07-18T04:59:29.000Z,1428
2017-07-18T05:00:28.987Z,1428
2017-07-18T05:01:29.428Z,1392
2017-07-18T05:02:28.966Z,1388
2017-07-18T05:03:29.255Z,1424
2017-07-18T05:04:29.226Z,1556
2017-07-18T05:05:29.206Z,1636
2017-07-18T05:06:28.925Z,1700
2017-07-18T05:07:28.625Z,1732
2017-07-18T05:08:29.170Z,1752
2017-07-18T05:09:28.889Z,1764
2017-07-18T05:10:29.133Z,1784
2017-07-18T05:11:28.824Z,1804
2017-07-18T05:12:29.107Z,1820
2017-07-18T05:13:29.085Z,1832
2017-07-18T05:14:29.075Z,1840
2017-07-18T05:15:29.046Z,1844
2017-07-18T05:16:29.027Z,1852
2017-07-18T05:17:28.721Z,1860
2017-07-18T05:18:29.027Z,1864
2017-07-18T05:19:28.998Z,1872
2017-07-18T05:20:29.069Z,1864
2017-07-18T05:21:28.965Z,1884
2017-07-18T05:22:28.968Z,1952
2017-07-18T05:23:28.938Z,1996
2017-07-18T05:24:28.616Z,2016
2017-07-18T05:25:28.976Z,2028
2017-07-18T05:26:28.899Z,2028
2017-07-18T05:27:28.867Z,2064
2017-07-18T05:28:28.560Z,2104
2017-07-18T05:29:28.937Z,2148
2017-07-18T05:30:28.831Z,2168
2017-07-18T05:31:28.588Z,2192
2017-07-18T05:32:28.789Z,2216
2017-07-18T05:33:28.797Z,2236
2017-07-18T05:34:28.456Z,2272
2017-07-18T05:35:28.751Z,2308
2017-07-18T05:36:28.404Z,2332
2017-07-18T05:37:28.697Z,2352
2017-07-18T05:38:28.377Z,2376
2017-07-18T05:39:28.372Z,2388
2017-07-18T05:40:28.376Z,2408
2017-07-18T05:41:28.097Z,2432
2017-07-18T05:42:28.307Z,2456
2017-07-18T05:43:28.625Z,2504
2017-07-18T05:44:28.059Z,2596
2017-07-18T05:45:28.387Z,2688
2017-07-18T05:46:28.257Z,2776
2017-07-18T05:47:28.236Z,2864
2017-07-18T05:48:28.592Z,2948
2017-07-18T05:49:28.535Z,3040
2017-07-18T05:50:28.235Z,3164
2017-07-18T05:51:28.526Z,3320
2017-07-18T05:52:27.855Z,3488
2017-07-18T05:53:28.547Z,3664
2017-07-18T05:54:28.446Z,3860
2017-07-18T05:55:28.155Z,4048
2017-07-18T05:56:28.435Z,4228
2017-07-18T05:57:28.417Z,4400
2017-07-18T05:58:28.104Z,4576
2017-07-18T05:59:28.088Z,4728
2017-07-18T06:00:28.403Z,4816
2017-07-18T06:01:28.370Z,4932
2017-07-18T06:02:27.722Z,5152
2017-07-18T06:03:27.995Z,5360
2017-07-18T06:04:28.317Z,5560
2017-07-18T06:05:28.263Z,5548
2017-07-18T06:06:28.301Z,5712
2017-07-18T06:07:27.736Z,5684
2017-07-18T06:08:28.205Z,5484
2017-07-18T06:09:27.579Z,5448
2017-07-18T06:10:27.894Z,5412
2017-07-18T06:11:27.256Z,5424
2017-07-18T06:12:27.882Z,5468
2017-07-18T06:13:27.865Z,5404
2017-07-18T06:14:27.828Z,5376
2017-07-18T06:15:27.176Z,5392
2017-07-18T06:16:27.807Z,5396
2017-07-18T06:17:27.468Z,5416
2017-07-18T06:18:28.102Z,5468
2017-07-18T06:19:27.791Z,5492
2017-07-18T06:20:27.761Z,5520
2017-07-18T06:21:27.761Z,5528
2017-07-18T06:22:28.092Z,5520
2017-07-18T06:23:27.985Z,5508
2017-07-18T06:24:27.747Z,5456
2017-07-18T06:25:27.998Z,5352
2017-07-18T06:26:27.687Z,5260
2017-07-18T06:27:27.667Z,5284
2017-07-18T06:28:27.979Z,5372
2017-07-18T06:29:27.925Z,5688
2017-07-18T06:30:27.963Z,6020
2017-07-18T06:31:27.595Z,6268
2017-07-18T06:32:27.596Z,6612
2017-07-18T06:33:27.857Z,6980
2017-07-18T06:34:27.602Z,7164
2017-07-18T06:35:28.062Z,7476
2017-07-18T06:36:27.817Z,7480
2017-07-18T06:37:27.775Z,7604
2017-07-18T06:38:27.807Z,7768
2017-07-18T06:39:27.472Z,7932
2017-07-18T06:40:34.029Z,8152
2017-07-18T06:41:28.009Z,8428
2017-07-18T06:42:27.449Z,8472
2017-07-18T06:43:29.469Z,8536
2017-07-18T06:44:27.727Z,8524
2017-07-18T06:45:27.619Z,8528
2017-07-18T06:46:27.728Z,8576
2017-07-18T06:47:27.626Z,8604
2017-07-18T06:48:27.678Z,8592
2017-07-18T06:49:27.139Z,8616
2017-07-18T06:50:27.717Z,8448
2017-07-18T06:51:54.914Z,8344
2017-07-18T06:53:11.928Z,8364
2017-07-18T06:53:41.207Z,8392
2017-07-18T06:54:43.498Z,8368
2017-07-18T06:55:27.287Z,8388
2017-07-18T06:56:27.639Z,8464
2017-07-18T06:57:27.643Z,8416
2017-07-18T06:58:54.420Z,8532
2017-07-18T06:59:26.631Z,8680
2017-07-18T07:00:52.895Z,9268
2017-07-18T07:01:39.958Z,9384
2017-07-18T07:02:27.532Z,9524
2017-07-18T07:03:33.748Z,9768
2017-07-18T07:04:27.257Z,10096
2017-07-18T07:05:27.136Z,10316
2017-07-18T07:06:27.130Z,10084
2017-07-18T07:07:27.418Z,10028
2017-07-18T07:08:27.487Z,9824
2017-07-18T07:09:26.768Z,9840
2017-07-18T07:10:27.075Z,10024
2017-07-18T07:11:26.739Z,10360
2017-07-18T07:12:27.048Z,10572
2017-07-18T07:13:26.419Z,10788
2017-07-18T07:14:27.048Z,10940
2017-07-18T07:15:26.986Z,11040
2017-07-18T07:16:27.325Z,11096
2017-07-18T07:17:26.655Z,11052
2017-07-18T07:18:27.241Z,11292
2017-07-18T07:19:27.229Z,11488
2017-07-18T07:20:26.620Z,11268
2017-07-18T07:21:27.212Z,11520
2017-07-18T07:22:26.594Z,11400
2017-07-18T07:23:26.857Z,11512
2017-07-18T07:24:26.865Z,11452
2017-07-18T07:25:26.843Z,11756
2017-07-18T07:26:26.872Z,11948
2017-07-18T07:27:26.815Z,12240
2017-07-18T07:28:27.114Z,12192
2017-07-18T07:29:26.814Z,12280
2017-07-18T07:30:26.855Z,12268
2017-07-18T07:31:26.813Z,12336
2017-07-18T07:32:27.074Z,12388
2017-07-18T07:33:27.102Z,12496
2017-07-18T07:34:26.451Z,12632
2017-07-18T07:35:27.087Z,13432
2017-07-18T07:36:26.714Z,13496
2017-07-18T07:37:27.014Z,13624
2017-07-18T07:38:27.018Z,13176
2017-07-18T07:39:26.682Z,12756
2017-07-18T07:40:27.062Z,12888
2017-07-18T07:41:26.677Z,12988
2017-07-18T07:42:26.657Z,12868
2017-07-18T07:43:26.342Z,12916
2017-07-18T07:44:26.928Z,13364
2017-07-18T07:45:26.915Z,13620
2017-07-18T07:46:26.594Z,12864
2017-07-18T07:47:26.917Z,12952
2017-07-18T07:48:26.886Z,13104
2017-07-18T07:49:26.579Z,13152
2017-07-18T07:50:26.545Z,12728
2017-07-18T07:51:26.849Z,12700
2017-07-18T07:52:26.534Z,12756
2017-07-18T07:53:26.524Z,12420
2017-07-18T07:54:26.845Z,13164
2017-07-18T07:55:26.822Z,13612
2017-07-18T07:56:26.823Z,13280
2017-07-18T07:57:26.559Z,13204
2017-07-18T07:58:26.490Z,14368
2017-07-18T07:59:26.762Z,14468
2017-07-18T08:00:26.742Z,15552
2017-07-18T08:01:26.454Z,15308
2017-07-18T08:02:26.713Z,16096
2017-07-18T08:03:26.546Z,15560
2017-07-18T08:04:26.705Z,16224
2017-07-18T08:05:26.704Z,15464
2017-07-18T08:06:26.694Z,15692
2017-07-18T08:07:26.393Z,15144
2017-07-18T08:08:26.675Z,16096
2017-07-18T08:09:26.658Z,16064
2017-07-18T08:10:26.407Z,16224
2017-07-18T08:11:26.364Z,16480
2017-07-18T08:12:26.634Z,16736
2017-07-18T08:13:26.646Z,15528
2017-07-18T08:14:26.635Z,15640
2017-07-18T08:15:26.692Z,16736
2017-07-18T08:16:26.604Z,16864
2017-07-18T08:17:25.968Z,17632
2017-07-18T08:18:26.373Z,18272
2017-07-18T08:19:26.576Z,18112
2017-07-18T08:20:26.559Z,17728
2017-07-18T08:21:26.653Z,16992
2017-07-18T08:22:26.557Z,16352
2017-07-18T08:23:26.524Z,16288
2017-07-18T08:24:26.557Z,15160
2017-07-18T08:25:26.493Z,15180
2017-07-18T08:26:26.556Z,15484
2017-07-18T08:27:26.558Z,16048
2017-07-18T08:28:26.473Z,16704
2017-07-18T08:29:26.465Z,17536
2017-07-18T08:30:26.471Z,17184
2017-07-18T08:31:26.465Z,18272
2017-07-18T08:32:26.528Z,18496
2017-07-18T08:33:26.431Z,18496
2017-07-18T08:34:26.114Z,18848
2017-07-18T08:35:26.114Z,18432
2017-07-18T08:36:26.104Z,19424
2017-07-18T08:37:26.089Z,19168
2017-07-18T08:38:26.393Z,19488
2017-07-18T08:39:26.370Z,18816
2017-07-18T08:40:26.364Z,19520
2017-07-18T08:41:26.365Z,20192
2017-07-18T08:42:26.354Z,19232
2017-07-18T08:43:26.361Z,19584
2017-07-18T08:44:26.339Z,19296
2017-07-18T08:45:26.316Z,18496
2017-07-18T08:46:26.066Z,23584
2017-07-18T08:47:25.994Z,30016
2017-07-18T08:48:26.293Z,36128
2017-07-18T08:49:25.358Z,58080
2017-07-18T08:50:25.963Z,52640
2017-07-18T08:51:26.019Z,59136
2017-07-18T08:52:26.263Z,76000
2017-07-18T08:53:25.750Z,86368
2017-07-18T08:54:26.247Z,85408
2017-07-18T08:55:26.034Z,82272
2017-07-18T08:56:25.914Z,94304
2017-07-18T08:57:25.612Z,91936
2017-07-18T08:58:25.942Z,88320
2017-07-18T08:59:26.004Z,86048
2017-07-18T09:00:25.883Z,88064
2017-07-18T09:01:25.975Z,90624
2017-07-18T09:02:25.234Z,90464
2017-07-18T09:03:26.247Z,84800
2017-07-18T09:04:26.168Z,86048
2017-07-18T09:05:26.176Z,91104
2017-07-18T09:06:25.837Z,85408
2017-07-18T09:07:26.133Z,84576
2017-07-18T09:08:26.215Z,90688
2017-07-18T09:09:26.224Z,85344
2017-07-18T09:10:25.823Z,82144
2017-07-18T09:11:26.114Z,84160
2017-07-18T09:12:26.111Z,85088
2017-07-18T09:13:26.120Z,88864
2017-07-18T09:14:26.090Z,89888
2017-07-18T09:15:26.106Z,81920
2017-07-18T09:16:26.089Z,82656
2017-07-18T09:17:25.771Z,85440
2017-07-18T09:18:26.092Z,81984
2017-07-18T09:19:26.082Z,80128
2017-07-18T09:20:26.072Z,76640
2017-07-18T09:21:25.452Z,79968
2017-07-18T09:22:25.785Z,76288
2017-07-18T09:23:26.061Z,75648
2017-07-18T09:24:26.062Z,82336
2017-07-18T09:25:25.806Z,75872
2017-07-18T09:26:26.084Z,74496
2017-07-18T09:27:26.044Z,78176
2017-07-18T09:28:26.057Z,77184
2017-07-18T09:29:26.064Z,70304
2017-07-18T09:30:25.732Z,74400
2017-07-18T09:31:25.731Z,76640
2017-07-18T09:32:26.062Z,71232
2017-07-18T09:33:25.733Z,74112
2017-07-18T09:34:26.134Z,75008
2017-07-18T09:35:26.096Z,70560
2017-07-18T09:36:26.109Z,65152
2017-07-18T09:37:25.713Z,71968
2017-07-18T09:38:26.061Z,72608
2017-07-18T09:39:25.704Z,67872
2017-07-18T09:40:26.053Z,65504
2017-07-18T09:41:26.036Z,66560
2017-07-18T09:42:26.013Z,63264
2017-07-18T09:43:26.063Z,65600
2017-07-18T09:44:26.051Z,63136
2017-07-18T09:45:26.004Z,64800
2017-07-18T09:46:26.005Z,67456
2017-07-18T09:47:26.039Z,67648
2017-07-18T09:48:25.705Z,69952
2017-07-18T09:49:25.994Z,67840
2017-07-18T09:50:25.993Z,65632
2017-07-18T09:51:25.991Z,66048
2017-07-18T09:52:26.014Z,64160
2017-07-18T09:53:26.004Z,63840
2017-07-18T09:54:25.986Z,63968
2017-07-18T09:55:25.984Z,63040
2017-07-18T09:56:26.007Z,60288
2017-07-18T09:57:25.985Z,63456
2017-07-18T09:58:25.977Z,61376
2017-07-18T09:59:26.082Z,62080
2017-07-18T10:00:26.028Z,58816
2017-07-18T10:01:26.012Z,57888
2017-07-18T10:02:26.073Z,56608
2017-07-18T10:03:26.012Z,55776
2017-07-18T10:04:25.691Z,52672
2017-07-18T10:05:25.978Z,56032
2017-07-18T10:06:25.973Z,55808
2017-07-18T10:07:26.013Z,56352
2017-07-18T10:08:25.682Z,55392
2017-07-18T10:09:26.012Z,55136
2017-07-18T10:10:25.980Z,52448
2017-07-18T10:11:26.034Z,53664
2017-07-18T10:12:25.963Z,54432
2017-07-18T10:13:25.973Z,53024
2017-07-18T10:14:25.663Z,53664
2017-07-18T10:15:25.662Z,52800
2017-07-18T10:16:25.656Z,50112
2017-07-18T10:17:25.659Z,49408
2017-07-18T10:18:25.962Z,48416
2017-07-18T10:19:25.733Z,48032
2017-07-18T10:20:25.635Z,49440
2017-07-18T10:21:25.643Z,49632
2017-07-18T10:22:25.927Z,49024
2017-07-18T10:23:25.325Z,48608
2017-07-18T10:24:25.930Z,44480
2017-07-18T10:25:25.934Z,30752
2017-07-18T10:26:25.929Z,15944
2017-07-18T10:27:25.965Z,9936
2017-07-18T10:28:25.403Z,9608
2017-07-18T10:29:26.052Z,9428
2017-07-18T10:30:25.603Z,8396
2017-07-18T10:31:25.623Z,8240
2017-07-18T10:32:25.965Z,8252
2017-07-18T10:33:26.015Z,8604
2017-07-18T10:34:25.906Z,8684
2017-07-18T10:35:25.613Z,8440
2017-07-18T10:36:25.593Z,8412
2017-07-18T10:37:25.293Z,8236
2017-07-18T10:38:25.266Z,8176
2017-07-18T10:39:25.565Z,8108
2017-07-18T10:40:25.880Z,7980
2017-07-18T10:41:25.270Z,7820
2017-07-18T10:42:25.555Z,7696
2017-07-18T10:43:25.593Z,7612
2017-07-18T10:44:25.543Z,7504
2017-07-18T10:45:25.868Z,7420
2017-07-18T10:46:25.534Z,7372
2017-07-18T10:47:25.363Z,7316
2017-07-18T10:48:25.529Z,7264
2017-07-18T10:49:25.264Z,7272
2017-07-18T10:50:25.524Z,7240
2017-07-18T10:51:25.824Z,7180
2017-07-18T10:52:25.507Z,7156
2017-07-18T10:53:25.577Z,7088
2017-07-18T10:54:25.803Z,7124
2017-07-18T10:55:25.229Z,7192
2017-07-18T10:56:25.506Z,7216
2017-07-18T10:57:25.807Z,7376
2017-07-18T10:58:25.166Z,7508
2017-07-18T10:59:25.484Z,7172
2017-07-18T11:00:25.515Z,7336
2017-07-18T11:01:25.456Z,7512
2017-07-18T11:02:25.765Z,6748
2017-07-18T11:03:25.438Z,6440
2017-07-18T11:04:25.444Z,6768
2017-07-18T11:05:25.745Z,7228
2017-07-18T11:06:25.817Z,7920
2017-07-18T11:07:25.433Z,7480
2017-07-18T11:08:25.416Z,6752
2017-07-18T11:09:25.768Z,6816
2017-07-18T11:10:25.104Z,7152
2017-07-18T11:11:25.407Z,6640
2017-07-18T11:12:25.737Z,7148
2017-07-18T11:13:25.800Z,7152
2017-07-18T11:14:25.376Z,6312
2017-07-18T11:15:25.094Z,6432
2017-07-18T11:16:25.690Z,6864
2017-07-18T11:17:25.685Z,6828
2017-07-18T11:18:25.366Z,6864
2017-07-18T11:19:25.056Z,6924
2017-07-18T11:20:25.345Z,6876
2017-07-18T11:21:25.326Z,6984
2017-07-18T11:22:25.335Z,7036
2017-07-18T11:23:25.317Z,7032
2017-07-18T11:24:25.316Z,7036
2017-07-18T11:25:25.606Z,7076
2017-07-18T11:26:25.306Z,7056
2017-07-18T11:27:25.315Z,7004
2017-07-18T11:28:25.595Z,7008
2017-07-18T11:29:25.291Z,6936
2017-07-18T11:30:25.564Z,6892
2017-07-18T11:31:25.272Z,6892
2017-07-18T11:32:25.258Z,6888
2017-07-18T11:33:25.557Z,6852
2017-07-18T11:34:25.555Z,6824
2017-07-18T11:35:25.537Z,6828
2017-07-18T11:36:25.526Z,6808
2017-07-18T11:37:25.285Z,6736
2017-07-18T11:38:25.526Z,6764
2017-07-18T11:39:25.537Z,6728
2017-07-18T11:40:25.204Z,6736
2017-07-18T11:41:25.228Z,6756
2017-07-18T11:42:25.206Z,6748
2017-07-18T11:43:25.186Z,6824
2017-07-18T11:44:24.866Z,6736
2017-07-18T11:45:25.166Z,6768
2017-07-18T11:46:25.168Z,6680
2017-07-18T11:47:25.474Z,6668
2017-07-18T11:48:25.328Z,6716
2017-07-18T11:49:25.445Z,6640
2017-07-18T11:50:24.850Z,6624
2017-07-18T11:51:25.446Z,6592
2017-07-18T11:52:25.482Z,6644
2017-07-18T11:53:25.123Z,6600
2017-07-18T11:54:25.413Z,6524
2017-07-18T11:55:25.098Z,6532
2017-07-18T11:56:25.118Z,6500
2017-07-18T11:57:25.406Z,6544
2017-07-18T11:58:25.086Z,6492
2017-07-18T11:59:25.406Z,6532
2017-07-18T12:00:25.388Z,6456
2017-07-18T12:01:25.368Z,6472
2017-07-18T12:02:25.065Z,6392
2017-07-18T12:03:25.066Z,6452
2017-07-18T12:04:25.357Z,6440
2017-07-18T12:05:25.336Z,6412
2017-07-18T12:06:24.737Z,6424
2017-07-18T12:07:25.038Z,6364
2017-07-18T12:08:25.037Z,6364
2017-07-18T12:09:25.026Z,6392
2017-07-18T12:10:25.314Z,6256
2017-07-18T12:11:24.696Z,6228
2017-07-18T12:12:25.296Z,6256
2017-07-18T12:13:25.306Z,6268
2017-07-18T12:14:25.274Z,6228
2017-07-18T12:15:25.277Z,6164
2017-07-18T12:16:25.266Z,6164
2017-07-18T12:17:25.277Z,6096
2017-07-18T12:18:25.018Z,6080
2017-07-18T12:19:24.666Z,6064
2017-07-18T12:20:24.649Z,6136
2017-07-18T12:42:50.225Z,5776
2017-07-18T12:46:02.873Z,5844
2017-07-18T12:53:31.407Z,5724
2017-07-18T12:56:57.797Z,5792
2017-07-18T13:08:40.095Z,5708
2017-07-18T13:08:51.728Z,5704
2017-07-18T13:09:51.393Z,5728
2017-07-18T13:10:52.805Z,5724
2017-07-18T13:11:51.386Z,5736
2017-07-18T13:12:51.704Z,5732
2017-07-18T13:13:51.728Z,5732
2017-07-18T13:14:52.092Z,5784
2017-07-18T13:15:51.376Z,5796
2017-07-18T13:16:51.038Z,5768
2017-07-18T13:17:51.656Z,5748
2017-07-18T13:18:51.979Z,5748
2017-07-18T13:19:51.308Z,5744
2017-07-18T13:20:51.939Z,5764
2017-07-18T13:21:51.626Z,5784
2017-07-18T13:22:51.306Z,5776
2017-07-18T13:23:51.977Z,5752
2017-07-18T13:24:51.617Z,5716
2017-07-18T13:25:51.967Z,5740
2017-07-18T13:26:51.585Z,5728
2017-07-18T13:27:51.903Z,5736
2017-07-18T13:28:51.568Z,5768
2017-07-18T13:29:51.925Z,5724
2017-07-18T13:30:51.868Z,5740
2017-07-18T13:31:51.869Z,5760
2017-07-18T13:32:51.530Z,5720
2017-07-18T13:33:51.537Z,5740
2017-07-18T13:34:51.839Z,5720
2017-07-18T13:35:51.843Z,5704
2017-07-18T13:36:51.836Z,5740
2017-07-18T13:37:51.805Z,5712
2017-07-18T13:38:51.834Z,5736
2017-07-18T13:39:51.491Z,5740
2017-07-18T13:40:51.497Z,5744
2017-07-18T13:41:51.476Z,5748
2017-07-18T13:42:51.775Z,5728
2017-07-18T13:43:51.782Z,5744
2017-07-18T13:44:51.792Z,5716
2017-07-18T13:45:51.753Z,5692
2017-07-18T13:46:51.464Z,5680
2017-07-18T13:47:51.745Z,5704
2017-07-18T13:48:51.133Z,5688
2017-07-18T13:49:51.735Z,5764
2017-07-18T13:50:51.734Z,5736
2017-07-18T13:51:51.727Z,5740
2017-07-18T13:52:51.447Z,5720
2017-07-18T13:53:51.399Z,5712
2017-07-18T13:54:51.087Z,5720
2017-07-18T13:55:51.415Z,5708
2017-07-18T13:56:51.375Z,5692
2017-07-18T13:57:51.385Z,5728
2017-07-18T13:58:50.747Z,5724
2017-07-18T13:59:50.752Z,5716
2017-07-18T14:00:51.042Z,5740
2017-07-18T14:01:51.035Z,5732
2017-07-18T14:02:50.705Z,5732
2017-07-18T14:03:51.661Z,5744
2017-07-18T14:04:51.624Z,5736
2017-07-18T14:05:51.627Z,5728
2017-07-18T14:06:51.303Z,5724
2017-07-18T14:07:51.329Z,5624
2017-07-18T14:08:51.305Z,5656
2017-07-18T14:09:51.605Z,5668
2017-07-18T14:10:51.287Z,5596
2017-07-18T14:11:50.977Z,5612
2017-07-18T14:12:51.596Z,5584
2017-07-18T14:13:51.575Z,5536
2017-07-18T14:14:51.575Z,5520
2017-07-18T14:15:51.243Z,5428
2017-07-18T14:16:51.263Z,5472